Time;durP1;ratioP1;P1;durP2;ratioP2;P2;SDS_P1;SDS_P2;PMS_P1;PMS_P2;Temp;Humidity;BMP_temperature;BMP_pressure;BME280_temperature;BME280_humidity;BME280_pressure;Samples;Min_cycle;Max_cycle;Signal;HPM_P1;HPM_P2
2023/09/01 00:02:20;;;;;;;1.80;1.70;;;;;;;;;;4993468;28;20590;-65
2023/09/01 00:04:46;;;;;;;1.77;1.67;;;;;;;;;;4992096;28;20447;-65
2023/09/01 00:07:11;;;;;;;1.90;1.80;;;;;;;;;;4993841;28;20427;-65
2023/09/01 00:09:37;;;;;;;3.17;1.80;;;;;;;;;;4993672;28;20448;-65
2023/09/01 00:12:06;;;;;;;3.03;1.90;;;;;;;;;;4993839;28;20455;-65
2023/09/01 00:14:32;;;;;;;3.33;2.20;;;;;;;;;;4993255;28;20420;-66
2023/09/01 00:16:58;;;;;;;1.67;1.33;;;;;;;;;;4993401;28;20452;-65
2023/09/01 00:19:24;;;;;;;1.63;1.53;;;;;;;;;;4993435;28;20476;-65
2023/09/01 00:21:50;;;;;;;3.13;1.40;;;;;;;;;;4993488;28;20895;-65
2023/09/01 00:24:18;;;;;;;6.10;1.43;;;;;;;;;;4993401;28;20612;-65
2023/09/01 00:26:47;;;;;;;2.40;1.77;;;;;;;;;;4993521;28;20487;-65
2023/09/01 00:29:15;;;;;;;2.03;1.93;;;;;;;;;;4993065;28;20440;-65
2023/09/01 00:31:41;;;;;;;4.80;1.70;;;;;;;;;;4993616;28;20455;-65
2023/09/01 00:34:08;;;;;;;2.20;1.60;;;;;;;;;;4993244;28;20480;-65
2023/09/01 00:36:33;;;;;;;2.23;1.43;;;;;;;;;;4992891;28;20421;-65
2023/09/01 00:38:59;;;;;;;9.20;1.60;;;;;;;;;;4993374;28;20866;-65
2023/09/01 00:41:25;;;;;;;3.67;1.87;;;;;;;;;;4993211;28;20504;-65
2023/09/01 00:43:51;;;;;;;2.50;2.03;;;;;;;;;;4993433;28;20502;-65
2023/09/01 00:46:20;;;;;;;1.77;1.67;;;;;;;;;;4992916;28;20411;-65
2023/09/01 00:48:46;;;;;;;2.00;1.63;;;;;;;;;;4992749;28;20514;-65
2023/09/01 00:51:14;;;;;;;5.13;1.80;;;;;;;;;;4993285;28;20416;-65
2023/09/01 00:53:43;;;;;;;3.43;1.30;;;;;;;;;;4992967;28;20422;-65
2023/09/01 00:56:09;;;;;;;2.20;1.90;;;;;;;;;;4992899;28;20574;-65
2023/09/01 00:58:35;;;;;;;2.43;1.70;;;;;;;;;;4993171;28;20537;-65
2023/09/01 01:01:04;;;;;;;3.77;1.50;;;;;;;;;;4992930;28;20427;-65
2023/09/01 01:03:33;;;;;;;4.10;1.67;;;;;;;;;;4993097;28;20477;-65
2023/09/01 01:06:09;;;;;;;1.67;1.37;;;;;;;;;;4992754;28;20451;-65
2023/09/01 01:08:35;;;;;;;2.40;1.60;;;;;;;;;;4992757;28;20478;-65
2023/09/01 01:11:23;;;;;;;1.97;1.33;;;;;;;;;;4993029;28;20418;-65
2023/09/01 01:13:54;;;;;;;1.90;1.80;;;;;;;;;;4992572;28;20509;-65
2023/09/01 01:16:23;;;;;;;1.67;1.40;;;;;;;;;;4991647;28;20416;-65
2023/09/01 01:18:55;;;;;;;1.83;1.20;;;;;;;;;;4992720;28;20468;-65
2023/09/01 01:21:28;;;;;;;1.73;1.20;;;;;;;;;;4992799;28;20589;-65
2023/09/01 01:23:54;;;;;;;1.37;1.37;;;;;;;;;;4993034;28;20782;-65
2023/09/01 01:26:23;;;;;;;2.53;1.47;;;;;;;;;;4992813;28;20415;-65
2023/09/01 01:28:49;;;;;;;2.90;1.70;;;;;;;;;;4992710;28;20453;-65
2023/09/01 01:31:15;;;;;;;1.90;1.50;;;;;;;;;;4992725;28;20412;-65
2023/09/01 01:33:44;;;;;;;2.00;1.90;;;;;;;;;;4992811;28;20425;-65
2023/09/01 01:36:15;;;;;;;2.60;1.80;;;;;;;;;;4992323;28;20886;-65
2023/09/01 01:38:46;;;;;;;1.90;1.80;;;;;;;;;;4992286;28;20465;-65
2023/09/01 01:41:18;;;;;;;1.90;1.80;;;;;;;;;;4996523;28;20442;-65
2023/09/01 01:43:49;;;;;;;1.57;1.47;;;;;;;;;;4995975;28;20418;-65
2023/09/01 01:46:15;;;;;;;1.90;1.53;;;;;;;;;;4996824;28;20437;-65
2023/09/01 01:48:41;;;;;;;3.07;1.83;;;;;;;;;;4995985;28;20441;-65
2023/09/01 01:51:07;;;;;;;2.80;1.70;;;;;;;;;;4995723;28;20601;-65
2023/09/01 01:53:36;;;;;;;1.73;1.73;;;;;;;;;;4995911;28;20769;-65
2023/09/01 01:56:05;;;;;;;1.67;1.57;;;;;;;;;;4996462;28;20834;-65
2023/09/01 01:58:31;;;;;;;1.93;1.73;;;;;;;;;;4994912;28;21038;-65
2023/09/01 02:00:57;;;;;;;2.60;1.70;;;;;;;;;;4995832;28;20440;-65
2023/09/01 02:03:23;;;;;;;1.57;1.43;;;;;;;;;;4996075;28;20489;-65
2023/09/01 02:05:49;;;;;;;3.33;1.70;;;;;;;;;;4996103;28;20502;-65
2023/09/01 02:08:17;;;;;;;7.07;1.87;;;;;;;;;;4995962;28;20450;-66
2023/09/01 02:10:43;;;;;;;1.73;1.50;;;;;;;;;;4995992;28;20483;-66
2023/09/01 02:13:11;;;;;;;4.83;1.70;;;;;;;;;;4996179;28;20441;-66
2023/09/01 02:15:37;;;;;;;1.60;1.50;;;;;;;;;;4995649;28;20449;-66
2023/09/01 02:18:03;;;;;;;2.80;1.70;;;;;;;;;;4995875;28;20788;-66
2023/09/01 02:20:30;;;;;;;1.67;1.67;;;;;;;;;;4995526;28;20436;-66
2023/09/01 02:22:56;;;;;;;2.93;1.60;;;;;;;;;;4996155;28;20421;-66
2023/09/01 02:25:22;;;;;;;1.53;1.43;;;;;;;;;;4995692;28;20463;-66
2023/09/01 02:27:50;;;;;;;2.80;1.60;;;;;;;;;;4995473;28;20433;-66
2023/09/01 02:30:16;;;;;;;1.57;1.47;;;;;;;;;;4995050;28;20515;-66
2023/09/01 02:32:42;;;;;;;2.83;1.70;;;;;;;;;;4995141;28;20422;-66
2023/09/01 02:35:09;;;;;;;1.23;1.23;;;;;;;;;;4995454;28;20453;-66
2023/09/01 02:37:35;;;;;;;1.63;1.40;;;;;;;;;;4995115;28;20453;-66
2023/09/01 02:40:10;;;;;;;1.50;1.50;;;;;;;;;;4995138;28;20476;-66
2023/09/01 02:42:36;;;;;;;1.40;1.40;;;;;;;;;;4995309;28;20499;-66
2023/09/01 02:45:04;;;;;;;4.80;1.43;;;;;;;;;;4995069;28;20511;-66
2023/09/01 02:47:30;;;;;;;1.23;1.17;;;;;;;;;;4995327;28;20436;-66
2023/09/01 02:49:56;;;;;;;1.83;1.73;;;;;;;;;;4995342;28;20488;-66
2023/09/01 02:52:22;;;;;;;1.50;1.50;;;;;;;;;;4993643;28;20431;-66
2023/09/01 02:54:50;;;;;;;1.47;1.47;;;;;;;;;;4995134;28;20475;-66
2023/09/01 02:57:16;;;;;;;2.73;1.33;;;;;;;;;;4994665;28;20534;-66
2023/09/01 02:59:42;;;;;;;1.40;1.30;;;;;;;;;;4994559;28;21012;-66
2023/09/01 03:02:08;;;;;;;2.97;1.33;;;;;;;;;;4994810;28;20432;-66
2023/09/01 03:04:34;;;;;;;2.13;1.10;;;;;;;;;;4993604;28;20929;-66
2023/09/01 03:07:00;;;;;;;3.17;1.30;;;;;;;;;;4994867;28;20760;-66
2023/09/01 03:09:26;;;;;;;2.77;1.50;;;;;;;;;;4994952;28;20420;-66
2023/09/01 03:11:52;;;;;;;1.30;1.20;;;;;;;;;;4994923;28;20500;-66
2023/09/01 03:14:18;;;;;;;1.73;1.40;;;;;;;;;;4994406;28;20529;-66
2023/09/01 03:16:44;;;;;;;1.20;1.20;;;;;;;;;;4994096;28;20417;-66
2023/09/01 03:19:13;;;;;;;1.50;1.40;;;;;;;;;;4994263;28;20472;-66
2023/09/01 03:21:39;;;;;;;2.70;1.50;;;;;;;;;;4994340;28;20436;-66
2023/09/01 03:24:05;;;;;;;1.73;1.20;;;;;;;;;;4994666;28;20436;-66
2023/09/01 03:26:34;;;;;;;4.30;1.40;;;;;;;;;;4994138;28;20457;-66
2023/09/01 03:29:02;;;;;;;1.80;1.23;;;;;;;;;;4994029;28;20507;-66
2023/09/01 03:31:28;;;;;;;1.93;1.63;;;;;;;;;;4994192;28;20831;-66
2023/09/01 03:33:57;;;;;;;2.47;1.20;;;;;;;;;;4993912;28;20425;-66
2023/09/01 03:36:23;;;;;;;1.40;1.40;;;;;;;;;;4994393;28;20995;-66
2023/09/01 03:38:49;;;;;;;4.90;1.43;;;;;;;;;;4994232;28;20465;-66
2023/09/01 03:41:15;;;;;;;1.43;1.33;;;;;;;;;;4993925;28;20438;-66
2023/09/01 03:43:41;;;;;;;4.97;1.60;;;;;;;;;;4994247;28;20426;-66
2023/09/01 03:46:09;;;;;;;2.30;1.43;;;;;;;;;;4993821;28;20466;-66
2023/09/01 03:48:35;;;;;;;1.43;1.43;;;;;;;;;;4994271;28;20502;-66
2023/09/01 03:51:05;;;;;;;4.67;1.77;;;;;;;;;;4994086;28;20445;-66
2023/09/01 03:53:31;;;;;;;3.23;1.63;;;;;;;;;;4993517;28;20519;-66
2023/09/01 03:55:57;;;;;;;2.10;1.43;;;;;;;;;;4994770;28;20569;-66
2023/09/01 03:58:22;;;;;;;1.77;1.63;;;;;;;;;;4993639;28;20483;-66
2023/09/01 04:00:48;;;;;;;5.30;1.67;;;;;;;;;;4993672;28;20888;-66
2023/09/01 04:03:15;;;;;;;2.50;1.30;;;;;;;;;;4993485;28;20927;-66
2023/09/01 04:05:41;;;;;;;1.20;1.10;;;;;;;;;;4992457;28;20417;-66
2023/09/01 04:08:07;;;;;;;1.63;1.50;;;;;;;;;;4993375;28;20426;-66
2023/09/01 04:10:39;;;;;;;2.23;1.80;;;;;;;;;;4993111;28;20406;-66
2023/09/01 04:13:07;;;;;;;4.67;1.93;;;;;;;;;;4993291;28;20435;-66
2023/09/01 04:15:33;;;;;;;2.33;1.30;;;;;;;;;;4993672;28;20412;-66
2023/09/01 04:17:59;;;;;;;2.93;1.30;;;;;;;;;;4992946;28;20412;-66
2023/09/01 04:20:27;;;;;;;2.00;1.80;;;;;;;;;;4993455;28;20441;-66
2023/09/01 04:22:53;;;;;;;8.97;1.83;;;;;;;;;;4993648;28;20410;-66
2023/09/01 04:25:19;;;;;;;2.83;1.27;;;;;;;;;;4993328;28;20405;-66
2023/09/01 04:27:45;;;;;;;2.03;1.93;;;;;;;;;;4993400;28;20448;-66
2023/09/01 04:30:11;;;;;;;5.93;1.93;;;;;;;;;;4992793;28;20463;-66
2023/09/01 04:32:37;;;;;;;4.50;1.60;;;;;;;;;;4993106;28;20917;-66
2023/09/01 04:35:06;;;;;;;1.83;1.47;;;;;;;;;;4993320;28;20429;-66
2023/09/01 04:37:31;;;;;;;2.30;1.30;;;;;;;;;;4993005;28;20425;-66
2023/09/01 04:39:57;;;;;;;1.77;1.77;;;;;;;;;;4993201;28;20534;-66
2023/09/01 04:42:23;;;;;;;1.70;1.63;;;;;;;;;;4992573;28;20529;-66
2023/09/01 04:44:49;;;;;;;1.40;1.30;;;;;;;;;;4992727;28;20456;-66
2023/09/01 04:47:15;;;;;;;3.30;1.53;;;;;;;;;;4992872;28;20436;-66
2023/09/01 04:49:41;;;;;;;1.73;1.47;;;;;;;;;;4992898;28;20558;-66
2023/09/01 04:52:07;;;;;;;1.30;1.30;;;;;;;;;;4992933;28;20480;-66
2023/09/01 04:54:33;;;;;;;3.60;2.13;;;;;;;;;;4992937;28;20418;-66
2023/09/01 04:57:01;;;;;;;4.70;1.40;;;;;;;;;;4992772;28;20450;-66
2023/09/01 04:59:27;;;;;;;2.60;1.67;;;;;;;;;;4993089;28;20560;-66
2023/09/01 05:01:56;;;;;;;2.10;1.73;;;;;;;;;;4991366;28;20423;-65
2023/09/01 05:04:22;;;;;;;1.50;1.40;;;;;;;;;;4992996;28;20418;-65
2023/09/01 05:06:48;;;;;;;1.67;1.57;;;;;;;;;;4992765;28;20504;-64
2023/09/01 05:09:16;;;;;;;1.73;1.57;;;;;;;;;;4992741;28;20426;-66
2023/09/01 05:11:44;;;;;;;1.23;1.17;;;;;;;;;;4991578;28;20497;-65
2023/09/01 05:14:10;;;;;;;2.80;1.37;;;;;;;;;;4993010;28;20417;-65
2023/09/01 05:16:36;;;;;;;4.60;1.90;;;;;;;;;;4996809;28;20508;-65
2023/09/01 05:19:03;;;;;;;1.40;1.23;;;;;;;;;;4996742;28;20479;-65
2023/09/01 05:21:29;;;;;;;1.57;1.40;;;;;;;;;;4996474;28;20936;-65
2023/09/01 05:23:55;;;;;;;1.50;1.40;;;;;;;;;;4996777;28;20418;-65
2023/09/01 05:26:21;;;;;;;2.70;1.40;;;;;;;;;;4996375;28;20909;-65
2023/09/01 05:28:47;;;;;;;2.90;1.60;;;;;;;;;;4996654;28;20464;-66
2023/09/01 05:31:13;;;;;;;3.17;1.77;;;;;;;;;;4996332;28;20512;-65
2023/09/01 05:33:38;;;;;;;1.37;1.37;;;;;;;;;;4996329;28;20424;-65
2023/09/01 05:36:05;;;;;;;1.83;1.73;;;;;;;;;;4996497;28;20516;-65
2023/09/01 05:38:31;;;;;;;1.40;1.37;;;;;;;;;;4996565;28;20463;-65
2023/09/01 05:41:05;;;;;;;2.97;1.47;;;;;;;;;;4996311;28;20804;-65
2023/09/01 05:43:31;;;;;;;1.57;1.47;;;;;;;;;;4994828;28;20438;-66
2023/09/01 05:46:00;;;;;;;1.80;1.70;;;;;;;;;;4996265;28;20420;-66
2023/09/01 05:48:29;;;;;;;2.17;1.33;;;;;;;;;;4995068;28;20444;-65
2023/09/01 05:50:59;;;;;;;1.20;1.20;;;;;;;;;;4996209;28;20503;-65
2023/09/01 05:53:27;;;;;;;4.00;1.80;;;;;;;;;;4995870;28;20411;-67
2023/09/01 05:55:53;;;;;;;7.17;1.90;;;;;;;;;;4996296;28;20477;-64
2023/09/01 05:58:19;;;;;;;1.47;1.30;;;;;;;;;;4996170;28;20410;-63
2023/09/01 06:00:45;;;;;;;1.80;1.70;;;;;;;;;;4996293;28;20414;-63
2023/09/01 06:03:13;;;;;;;1.80;1.53;;;;;;;;;;4996600;28;20833;-63
2023/09/01 06:05:39;;;;;;;1.30;1.30;;;;;;;;;;4996085;28;20438;-63
2023/09/01 06:08:05;;;;;;;3.03;1.73;;;;;;;;;;4996052;28;20474;-63
2023/09/01 06:10:31;;;;;;;3.53;1.50;;;;;;;;;;4996089;28;20410;-63
2023/09/01 06:13:00;;;;;;;1.83;1.70;;;;;;;;;;4996126;28;20443;-63
2023/09/01 06:15:28;;;;;;;2.07;1.87;;;;;;;;;;4996028;28;20418;-63
2023/09/01 06:17:54;;;;;;;1.77;1.30;;;;;;;;;;4996032;28;20782;-63
2023/09/01 06:20:20;;;;;;;6.73;1.33;;;;;;;;;;4996100;28;20593;-63
2023/09/01 06:22:46;;;;;;;2.97;1.60;;;;;;;;;;4995889;28;20782;-63
2023/09/01 06:25:12;;;;;;;1.73;1.63;;;;;;;;;;4995628;28;20430;-63
2023/09/01 06:27:40;;;;;;;2.43;1.80;;;;;;;;;;4994402;28;20455;-63
2023/09/01 06:30:06;;;;;;;4.13;1.57;;;;;;;;;;4995581;28;20502;-63
2023/09/01 06:32:33;;;;;;;1.50;1.40;;;;;;;;;;4995658;28;20443;-63
2023/09/01 06:34:59;;;;;;;1.70;1.60;;;;;;;;;;4995662;28;20510;-63
2023/09/01 06:37:25;;;;;;;2.37;1.80;;;;;;;;;;4995640;28;20444;-64
2023/09/01 06:39:51;;;;;;;6.97;2.00;;;;;;;;;;4995619;28;20834;-64
2023/09/01 06:42:17;;;;;;;3.97;1.60;;;;;;;;;;4995607;28;20924;-64
2023/09/01 06:44:43;;;;;;;2.47;2.27;;;;;;;;;;4995340;28;20460;-65
2023/09/01 06:47:10;;;;;;;1.73;1.63;;;;;;;;;;4994877;28;20453;-64
2023/09/01 06:49:38;;;;;;;1.67;1.50;;;;;;;;;;4995287;28;20420;-64
2023/09/01 06:52:04;;;;;;;1.50;1.33;;;;;;;;;;4995282;28;20418;-64
2023/09/01 06:54:30;;;;;;;1.83;1.73;;;;;;;;;;4995095;28;20416;-64
2023/09/01 06:56:56;;;;;;;2.43;1.87;;;;;;;;;;4995534;28;20891;-64
2023/09/01 06:59:22;;;;;;;6.13;1.63;;;;;;;;;;4995244;28;20475;-64
2023/09/01 07:01:48;;;;;;;1.67;1.57;;;;;;;;;;4995240;28;20434;-64
2023/09/01 07:04:14;;;;;;;2.03;2.03;;;;;;;;;;4995085;28;20514;-64
2023/09/01 07:06:43;;;;;;;1.53;1.53;;;;;;;;;;4995096;28;20394;-64
2023/09/01 07:09:11;;;;;;;1.63;1.53;;;;;;;;;;4994998;28;20857;-65
2023/09/01 07:11:37;;;;;;;4.87;2.07;;;;;;;;;;4994928;28;20427;-65
2023/09/01 07:14:05;;;;;;;1.90;1.80;;;;;;;;;;4994962;28;20499;-65
2023/09/01 07:16:31;;;;;;;1.53;1.33;;;;;;;;;;4994751;28;20421;-65
2023/09/01 07:18:57;;;;;;;3.90;2.00;;;;;;;;;;4994447;28;20555;-65
2023/09/01 07:21:23;;;;;;;1.70;1.60;;;;;;;;;;4994821;28;20877;-65
2023/09/01 07:23:49;;;;;;;5.33;3.57;;;;;;;;;;4994712;28;20438;-65
2023/09/01 07:26:16;;;;;;;2.90;1.70;;;;;;;;;;4994704;28;20439;-64
2023/09/01 07:28:42;;;;;;;2.47;1.80;;;;;;;;;;4994464;28;20929;-65
2023/09/01 07:31:13;;;;;;;1.73;1.63;;;;;;;;;;4994620;28;20436;-65
2023/09/01 07:33:42;;;;;;;1.50;1.40;;;;;;;;;;4993077;28;21164;-65
2023/09/01 07:36:10;;;;;;;1.60;1.50;;;;;;;;;;4994456;28;20470;-65
2023/09/01 07:38:36;;;;;;;1.40;1.30;;;;;;;;;;4993698;28;20506;-65
2023/09/01 07:41:03;;;;;;;1.80;1.60;;;;;;;;;;4994406;28;20787;-65
2023/09/01 07:43:31;;;;;;;1.60;1.50;;;;;;;;;;4994294;28;20444;-65
2023/09/01 07:45:58;;;;;;;3.03;1.50;;;;;;;;;;4994311;28;20425;-65
2023/09/01 07:48:23;;;;;;;6.50;5.90;;;;;;;;;;4992909;28;20594;-65
2023/09/01 07:50:50;;;;;;;3.53;1.37;;;;;;;;;;4994544;28;20495;-65
2023/09/01 07:53:16;;;;;;;4.37;1.50;;;;;;;;;;4994461;28;20445;-65
2023/09/01 07:55:42;;;;;;;1.80;1.70;;;;;;;;;;4994011;28;20483;-64
2023/09/01 07:58:08;;;;;;;12.13;1.70;;;;;;;;;;4994108;28;20529;-65
2023/09/01 08:00:35;;;;;;;3.20;1.50;;;;;;;;;;4994003;28;20909;-65
2023/09/01 08:03:01;;;;;;;2.10;1.90;;;;;;;;;;4993741;28;20419;-65
2023/09/01 08:05:27;;;;;;;6.90;1.53;;;;;;;;;;4993904;28;20469;-65
2023/09/01 08:07:55;;;;;;;1.30;1.30;;;;;;;;;;4993708;28;20568;-65
2023/09/01 08:10:26;;;;;;;1.60;1.60;;;;;;;;;;4993953;28;20889;-65
2023/09/01 08:12:52;;;;;;;1.27;1.27;;;;;;;;;;4993729;28;20500;-65
2023/09/01 08:15:18;;;;;;;4.50;2.00;;;;;;;;;;4993875;28;20427;-65
2023/09/01 08:17:49;;;;;;;1.93;1.37;;;;;;;;;;4993698;28;20423;-65
2023/09/01 08:20:17;;;;;;;1.37;1.37;;;;;;;;;;4993691;28;20971;-65
2023/09/01 08:22:43;;;;;;;1.70;1.57;;;;;;;;;;4993661;28;20503;-65
2023/09/01 08:25:09;;;;;;;1.37;1.27;;;;;;;;;;4993658;28;20439;-65
2023/09/01 08:27:38;;;;;;;14.00;12.10;;;;;;;;;;4993497;28;20854;-65
2023/09/01 08:30:04;;;;;;;2.23;1.70;;;;;;;;;;4993419;28;20424;-65
2023/09/01 08:32:30;;;;;;;2.83;1.40;;;;;;;;;;4993425;28;20415;-65
2023/09/01 08:34:58;;;;;;;1.90;1.67;;;;;;;;;;4993378;28;20903;-65
2023/09/01 08:37:24;;;;;;;1.00;1.00;;;;;;;;;;4993415;28;20510;-65
2023/09/01 08:39:50;;;;;;;2.20;1.37;;;;;;;;;;4993239;28;20579;-65
2023/09/01 08:42:17;;;;;;;1.77;1.20;;;;;;;;;;4993608;28;20402;-65
2023/09/01 08:44:43;;;;;;;1.40;1.30;;;;;;;;;;4993470;28;20423;-65
2023/09/01 08:47:10;;;;;;;1.60;1.50;;;;;;;;;;4993238;28;20439;-65
2023/09/01 08:49:39;;;;;;;1.73;1.00;;;;;;;;;;4992416;28;20436;-65
2023/09/01 08:52:05;;;;;;;4.10;1.50;;;;;;;;;;4992075;28;20498;-65
2023/09/01 08:54:34;;;;;;;1.10;1.10;;;;;;;;;;4992277;28;20913;-65
2023/09/01 08:57:00;;;;;;;1.50;1.40;;;;;;;;;;4993277;28;20405;-65
2023/09/01 08:59:31;;;;;;;1.00;1.00;;;;;;;;;;4993151;28;20480;-65
2023/09/01 09:01:57;;;;;;;2.50;1.70;;;;;;;;;;4993088;28;20829;-65
2023/09/01 09:04:23;;;;;;;2.60;1.97;;;;;;;;;;4993123;28;20940;-65
2023/09/01 09:06:49;;;;;;;1.27;1.17;;;;;;;;;;4993064;28;20496;-65
2023/09/01 09:09:15;;;;;;;13.63;10.47;;;;;;;;;;4991788;28;20450;-65
2023/09/01 09:11:57;;;;;;;1.50;1.40;;;;;;;;;;4993157;28;20424;-65
2023/09/01 09:14:24;;;;;;;1.53;1.43;;;;;;;;;;4993142;28;20436;-65
2023/09/01 09:16:53;;;;;;;2.53;1.20;;;;;;;;;;4992946;28;20478;-65
2023/09/01 09:19:20;;;;;;;4.50;1.63;;;;;;;;;;4992739;28;20515;-65
2023/09/01 09:21:46;;;;;;;2.87;1.40;;;;;;;;;;4992952;28;20429;-65
2023/09/01 09:24:12;;;;;;;3.83;1.57;;;;;;;;;;4992863;28;20440;-65
2023/09/01 09:26:38;;;;;;;1.13;0.93;;;;;;;;;;4992937;28;20437;-65
2023/09/01 09:29:11;;;;;;;2.50;1.87;;;;;;;;;;4991617;28;20433;-65
2023/09/01 09:31:39;;;;;;;1.70;1.60;;;;;;;;;;4992915;28;20419;-65
2023/09/01 09:34:12;;;;;;;1.70;1.60;;;;;;;;;;4992865;28;20457;-65
2023/09/01 09:36:38;;;;;;;3.30;1.23;;;;;;;;;;4992803;28;20426;-65
2023/09/01 09:39:10;;;;;;;1.40;1.30;;;;;;;;;;4992740;28;20851;-65
2023/09/01 09:41:46;;;;;;;2.00;1.80;;;;;;;;;;4993094;28;20450;-65
2023/09/01 09:44:12;;;;;;;1.80;1.20;;;;;;;;;;4992607;28;20466;-65
2023/09/01 09:46:44;;;;;;;1.50;1.50;;;;;;;;;;4992732;28;20412;-65
2023/09/01 09:49:10;;;;;;;2.30;1.40;;;;;;;;;;4992658;28;20440;-65
2023/09/01 09:51:37;;;;;;;2.67;1.20;;;;;;;;;;4992520;28;20444;-64
2023/09/01 09:54:04;;;;;;;1.00;1.00;;;;;;;;;;4992662;28;20420;-65
2023/09/01 09:56:30;;;;;;;1.30;1.20;;;;;;;;;;4992686;28;20513;-65
2023/09/01 09:58:58;;;;;;;1.50;1.40;;;;;;;;;;4992575;28;20473;-65
2023/09/01 10:01:24;;;;;;;5.40;1.27;;;;;;;;;;4994809;28;20412;-65
2023/09/01 10:03:54;;;;;;;1.63;1.53;;;;;;;;;;4996055;28;20980;-65
2023/09/01 10:06:24;;;;;;;2.80;1.30;;;;;;;;;;4996157;28;20420;-65
2023/09/01 10:08:54;;;;;;;1.13;1.00;;;;;;;;;;4995939;28;20815;-65
2023/09/01 10:11:21;;;;;;;1.63;1.20;;;;;;;;;;4996088;28;20445;-65
2023/09/01 10:13:48;;;;;;;3.90;1.63;;;;;;;;;;4996122;28;20448;-65
2023/09/01 10:16:14;;;;;;;2.53;1.47;;;;;;;;;;4996080;28;20905;-65
2023/09/01 10:18:47;;;;;;;1.73;1.70;;;;;;;;;;4995902;28;20512;-65
2023/09/01 10:21:13;;;;;;;1.50;1.40;;;;;;;;;;4995732;28;20504;-65
2023/09/01 10:23:39;;;;;;;1.50;1.40;;;;;;;;;;4995899;28;20405;-65
2023/09/01 10:26:13;;;;;;;1.80;1.60;;;;;;;;;;4995795;28;20429;-65
2023/09/01 10:28:54;;;;;;;2.43;1.40;;;;;;;;;;4995764;28;20591;-65
2023/09/01 10:31:20;;;;;;;1.00;0.90;;;;;;;;;;4995866;28;20487;-66
2023/09/01 10:33:49;;;;;;;2.40;1.60;;;;;;;;;;4995756;28;20487;-65
2023/09/01 10:36:17;;;;;;;3.00;1.13;;;;;;;;;;4995690;28;21052;-65
2023/09/01 10:38:45;;;;;;;3.43;1.13;;;;;;;;;;4995718;28;20461;-65
2023/09/01 10:41:11;;;;;;;1.20;1.20;;;;;;;;;;4995583;28;20873;-65
2023/09/01 10:43:59;;;;;;;3.40;1.40;;;;;;;;;;4995501;28;20416;-65
2023/09/01 10:46:25;;;;;;;2.13;1.60;;;;;;;;;;4995496;28;20442;-65
2023/09/01 10:49:00;;;;;;;1.60;1.50;;;;;;;;;;4995415;28;20436;-65
2023/09/01 10:51:28;;;;;;;5.07;4.77;;;;;;;;;;4995317;28;20428;-65
2023/09/01 10:53:56;;;;;;;2.93;1.43;;;;;;;;;;4995348;28;20458;-65
2023/09/01 10:56:22;;;;;;;1.73;1.13;;;;;;;;;;4995083;28;20519;-65
2023/09/01 10:58:48;;;;;;;5.87;1.57;;;;;;;;;;4995182;28;20523;-65
2023/09/01 11:01:27;;;;;;;2.30;1.37;;;;;;;;;;4994021;28;20448;-65
2023/09/01 11:03:53;;;;;;;0.90;0.90;;;;;;;;;;4995050;28;20785;-65
2023/09/01 11:06:20;;;;;;;1.27;1.23;;;;;;;;;;4995054;28;20501;-65
2023/09/01 11:08:59;;;;;;;2.37;1.33;;;;;;;;;;4995091;28;20461;-65
2023/09/01 11:11:25;;;;;;;1.37;1.30;;;;;;;;;;4994662;28;20417;-65
2023/09/01 11:13:55;;;;;;;2.87;1.40;;;;;;;;;;4994435;28;20575;-65
2023/09/01 11:16:21;;;;;;;1.20;1.10;;;;;;;;;;4994957;28;20402;-65
2023/09/01 11:18:58;;;;;;;1.83;1.20;;;;;;;;;;4994762;28;21044;-65
2023/09/01 11:21:24;;;;;;;1.20;1.10;;;;;;;;;;4994853;28;20412;-65
2023/09/01 11:23:50;;;;;;;1.33;1.23;;;;;;;;;;4994816;28;20417;-65
2023/09/01 11:26:17;;;;;;;1.40;1.30;;;;;;;;;;4994781;28;20427;-65
2023/09/01 11:28:43;;;;;;;5.83;1.40;;;;;;;;;;4995107;28;20468;-65
2023/09/01 11:31:09;;;;;;;1.53;1.27;;;;;;;;;;4994960;28;20703;-65
2023/09/01 11:33:37;;;;;;;2.60;1.60;;;;;;;;;;4994947;28;20458;-65
2023/09/01 11:36:10;;;;;;;1.80;1.70;;;;;;;;;;4994672;28;20909;-65
2023/09/01 11:38:36;;;;;;;3.73;1.50;;;;;;;;;;4994386;28;20417;-65
2023/09/01 11:41:03;;;;;;;1.50;1.50;;;;;;;;;;4994527;28;20420;-65
2023/09/01 11:43:29;;;;;;;5.80;1.43;;;;;;;;;;4994381;28;20905;-65
2023/09/01 11:45:56;;;;;;;1.63;1.53;;;;;;;;;;4994541;28;20410;-65
2023/09/01 11:48:25;;;;;;;2.10;2.00;;;;;;;;;;4994026;28;20925;-65
2023/09/01 11:50:55;;;;;;;1.20;1.20;;;;;;;;;;4994138;28;20541;-65
2023/09/01 11:53:24;;;;;;;1.80;1.70;;;;;;;;;;4993027;28;20418;-66
2023/09/01 11:55:51;;;;;;;1.60;1.50;;;;;;;;;;4994356;28;20920;-65
2023/09/01 11:58:20;;;;;;;1.43;1.30;;;;;;;;;;4994107;28;20905;-64
2023/09/01 12:00:49;;;;;;;1.43;1.33;;;;;;;;;;4993939;28;20437;-65
2023/09/01 12:03:21;;;;;;;2.90;1.40;;;;;;;;;;4994092;28;20437;-65
2023/09/01 12:05:47;;;;;;;2.40;1.67;;;;;;;;;;4993846;28;20426;-65
2023/09/01 12:08:13;;;;;;;4.37;1.67;;;;;;;;;;4992584;28;20440;-65
2023/09/01 12:10:41;;;;;;;1.60;1.50;;;;;;;;;;4993529;28;20464;-65
2023/09/01 12:13:11;;;;;;;1.17;1.07;;;;;;;;;;4993760;28;20414;-65
2023/09/01 12:15:58;;;;;;;2.67;1.87;;;;;;;;;;4993698;28;20460;-65
2023/09/01 12:18:29;;;;;;;2.00;1.60;;;;;;;;;;4992353;28;20430;-65
2023/09/01 12:20:56;;;;;;;2.07;1.43;;;;;;;;;;4993750;28;20444;-65
2023/09/01 12:23:25;;;;;;;3.47;1.43;;;;;;;;;;4993561;28;20429;-65
2023/09/01 12:25:51;;;;;;;1.20;1.10;;;;;;;;;;4992439;28;20437;-64
2023/09/01 12:28:17;;;;;;;1.90;1.70;;;;;;;;;;4993665;28;20418;-64
2023/09/01 12:30:43;;;;;;;10.53;1.70;;;;;;;;;;4992460;28;20461;-64
2023/09/01 12:33:09;;;;;;;1.10;1.10;;;;;;;;;;4993667;28;20479;-65
2023/09/01 12:35:37;;;;;;;1.50;1.40;;;;;;;;;;4993507;28;20448;-65
2023/09/01 12:38:03;;;;;;;4.90;1.17;;;;;;;;;;4993482;28;20480;-65
2023/09/01 12:40:29;;;;;;;2.00;1.03;;;;;;;;;;4993470;28;20473;-65
2023/09/01 12:42:55;;;;;;;1.40;1.40;;;;;;;;;;4992131;28;20532;-65
2023/09/01 12:45:23;;;;;;;2.97;1.30;;;;;;;;;;4993401;28;20468;-65
2023/09/01 12:47:52;;;;;;;1.43;1.20;;;;;;;;;;4992758;28;20476;-65
2023/09/01 12:50:18;;;;;;;0.90;0.90;;;;;;;;;;4991752;28;20449;-65
2023/09/01 12:52:46;;;;;;;1.27;1.27;;;;;;;;;;4993370;28;20783;-65
2023/09/01 12:55:12;;;;;;;1.17;0.90;;;;;;;;;;4991790;28;20952;-65
2023/09/01 12:57:38;;;;;;;2.10;1.30;;;;;;;;;;4991805;28;20461;-65
2023/09/01 13:00:04;;;;;;;2.30;1.40;;;;;;;;;;4992974;28;20887;-65
2023/09/01 13:02:30;;;;;;;1.20;0.90;;;;;;;;;;4993240;28;20505;-65
2023/09/01 13:04:57;;;;;;;1.47;1.07;;;;;;;;;;4993098;28;20461;-65
2023/09/01 13:07:26;;;;;;;1.20;1.20;;;;;;;;;;4993103;28;20425;-65
2023/09/01 13:09:54;;;;;;;1.07;1.07;;;;;;;;;;4993123;28;20513;-65
2023/09/01 13:12:20;;;;;;;1.13;1.13;;;;;;;;;;4993083;28;20437;-65
2023/09/01 13:14:46;;;;;;;1.40;1.30;;;;;;;;;;4992985;28;20504;-65
2023/09/01 13:17:12;;;;;;;0.90;0.90;;;;;;;;;;4991860;28;20425;-65
2023/09/01 13:19:38;;;;;;;1.47;1.37;;;;;;;;;;4992988;28;20469;-65
2023/09/01 13:22:06;;;;;;;1.20;1.10;;;;;;;;;;4993145;28;20422;-65
2023/09/01 13:24:32;;;;;;;1.70;1.10;;;;;;;;;;4993101;28;20885;-65
2023/09/01 13:27:00;;;;;;;1.30;1.20;;;;;;;;;;4992776;28;20457;-65
2023/09/01 13:29:26;;;;;;;2.63;1.10;;;;;;;;;;4992917;28;20425;-65
2023/09/01 13:31:52;;;;;;;1.37;1.27;;;;;;;;;;4992954;28;20789;-65
2023/09/01 13:34:18;;;;;;;2.10;1.40;;;;;;;;;;4992969;28;20472;-65
2023/09/01 13:36:44;;;;;;;1.37;1.03;;;;;;;;;;4995794;28;20469;-65
2023/09/01 13:39:10;;;;;;;1.20;1.10;;;;;;;;;;4996499;28;20948;-65
2023/09/01 13:41:36;;;;;;;1.03;1.03;;;;;;;;;;4996772;28;20429;-65
2023/09/01 13:44:04;;;;;;;2.20;0.90;;;;;;;;;;4995387;28;20417;-65
2023/09/01 13:46:31;;;;;;;2.77;1.23;;;;;;;;;;4996365;28;20857;-65
2023/09/01 13:49:00;;;;;;;1.20;1.20;;;;;;;;;;4996635;28;20414;-65
2023/09/01 13:51:26;;;;;;;0.97;0.97;;;;;;;;;;4996484;28;20929;-65
2023/09/01 13:53:55;;;;;;;2.40;1.70;;;;;;;;;;4996262;28;20428;-65
2023/09/01 13:56:21;;;;;;;1.30;1.30;;;;;;;;;;4996015;28;20469;-65
2023/09/01 13:58:50;;;;;;;1.70;1.60;;;;;;;;;;4995133;28;20488;-65
2023/09/01 14:01:16;;;;;;;1.30;1.20;;;;;;;;;;4994041;28;20452;-65
2023/09/01 14:03:43;;;;;;;1.07;1.07;;;;;;;;;;4995717;28;21904;-65
2023/09/01 14:06:09;;;;;;;1.50;1.40;;;;;;;;;;4995821;28;20947;-66
2023/09/01 14:08:36;;;;;;;1.33;1.23;;;;;;;;;;4995480;28;20497;-67
2023/09/01 14:11:02;;;;;;;1.70;1.60;;;;;;;;;;4995607;28;20438;-66
2023/09/01 14:13:28;;;;;;;1.10;1.10;;;;;;;;;;4995850;28;20428;-66
2023/09/01 14:15:55;;;;;;;1.20;1.20;;;;;;;;;;4995475;28;20437;-66
2023/09/01 14:18:24;;;;;;;1.70;1.60;;;;;;;;;;4995477;28;20433;-66
2023/09/01 14:20:52;;;;;;;1.43;1.43;;;;;;;;;;4995401;28;20472;-66
2023/09/01 14:23:25;;;;;;;1.23;1.03;;;;;;;;;;4994519;28;20452;-66
2023/09/01 14:25:54;;;;;;;45.47;40.53;;;;;;;;;;4995570;28;20429;-66
2023/09/01 14:28:21;;;;;;;1.70;1.60;;;;;;;;;;4995662;28;20417;-66
2023/09/01 14:30:50;;;;;;;1.27;1.17;;;;;;;;;;4995315;28;20410;-67
2023/09/01 14:33:16;;;;;;;1.87;1.77;;;;;;;;;;4995554;28;20412;-67
2023/09/01 14:35:42;;;;;;;1.80;1.13;;;;;;;;;;4995174;28;20496;-67
2023/09/01 14:38:08;;;;;;;2.30;1.53;;;;;;;;;;4995133;28;20410;-66
2023/09/01 14:40:38;;;;;;;1.50;1.40;;;;;;;;;;4994682;28;20816;-66
2023/09/01 14:43:04;;;;;;;2.00;1.13;;;;;;;;;;4995653;28;20444;-66
2023/09/01 14:45:33;;;;;;;1.37;1.27;;;;;;;;;;4995518;28;20413;-66